createdAt,value
2022-08-18T00:00:56.612Z,1000.07
2022-08-18T00:01:56.609Z,1000.09
2022-08-18T00:02:56.586Z,1000.05
2022-08-18T00:03:56.575Z,1000.06
2022-08-18T00:04:56.575Z,1000.1
2022-08-18T00:05:56.571Z,1000.07
2022-08-18T00:06:56.550Z,1000.04
2022-08-18T00:07:56.535Z,1000.08
2022-08-18T00:08:56.558Z,1000.04
2022-08-18T00:09:56.569Z,1000.08
2022-08-18T00:10:56.507Z,1000.01
2022-08-18T00:11:56.494Z,1000.08
2022-08-18T00:12:56.480Z,999.99
2022-08-18T00:13:56.465Z,1000.02
2022-08-18T00:14:56.460Z,1000.07
2022-08-18T00:15:56.457Z,1000.03
2022-08-18T00:16:56.452Z,1000.05
2022-08-18T00:17:56.444Z,1000.05
2022-08-18T00:18:56.413Z,1000.07
2022-08-18T00:19:56.404Z,1000.13
2022-08-18T00:20:56.399Z,1000.08
2022-08-18T00:21:56.377Z,1000.07
2022-08-18T00:22:56.373Z,1000.05
2022-08-18T00:23:56.388Z,1000.04
2022-08-18T00:24:56.348Z,1000.06
2022-08-18T00:25:56.347Z,1000.07
2022-08-18T00:26:56.321Z,1000.02
2022-08-18T00:27:56.317Z,1000.07
2022-08-18T00:28:56.309Z,1000.02
2022-08-18T00:29:56.286Z,1000.12
2022-08-18T00:30:56.276Z,1000.06
2022-08-18T00:31:56.267Z,1000.06
2022-08-18T00:32:56.261Z,1000.05
2022-08-18T00:33:56.251Z,1000.01
2022-08-18T00:34:56.232Z,1000.04
2022-08-18T00:35:56.253Z,1000.06
2022-08-18T00:36:56.221Z,999.98
2022-08-18T00:37:56.213Z,999.97
2022-08-18T00:38:56.190Z,1000.02
2022-08-18T00:39:56.187Z,999.97
2022-08-18T00:40:56.174Z,1000.01
2022-08-18T00:41:56.159Z,1000
2022-08-18T00:42:56.158Z,999.96
2022-08-18T00:43:56.142Z,999.99
2022-08-18T00:44:56.143Z,1000.03
2022-08-18T00:45:56.139Z,1000
2022-08-18T00:46:56.110Z,1000
2022-08-18T00:47:56.109Z,999.99
2022-08-18T00:48:56.083Z,999.93
2022-08-18T00:49:56.086Z,999.89
2022-08-18T00:50:56.070Z,999.92
2022-08-18T00:51:56.049Z,999.94
2022-08-18T00:52:56.032Z,999.96
2022-08-18T00:53:56.026Z,999.96
2022-08-18T00:54:56.018Z,999.93
2022-08-18T00:55:55.999Z,999.94
2022-08-18T00:56:55.995Z,999.9
2022-08-18T00:57:55.986Z,999.92
2022-08-18T00:58:55.971Z,999.87
2022-08-18T00:59:55.960Z,999.94
2022-08-18T01:00:55.945Z,999.91
2022-08-18T01:01:55.935Z,1000
2022-08-18T01:02:55.971Z,999.97
2022-08-18T01:03:55.915Z,999.94
2022-08-18T01:04:55.913Z,999.96
2022-08-18T01:05:55.931Z,999.97
2022-08-18T01:06:55.882Z,1000
2022-08-18T01:07:55.873Z,1000
2022-08-18T01:08:55.889Z,1000.05
2022-08-18T01:09:55.851Z,1000
2022-08-18T01:10:55.849Z,999.96
2022-08-18T01:11:55.826Z,999.95
2022-08-18T01:12:55.817Z,999.93
2022-08-18T01:13:55.827Z,999.92
2022-08-18T01:14:55.792Z,999.93
2022-08-18T01:15:55.792Z,999.9
2022-08-18T01:16:55.767Z,999.92
2022-08-18T01:17:55.756Z,999.94
2022-08-18T01:18:55.749Z,999.93
2022-08-18T01:19:55.739Z,999.95
2022-08-18T01:20:55.733Z,999.95
2022-08-18T01:21:55.728Z,999.89
2022-08-18T01:22:55.705Z,999.96
2022-08-18T01:23:55.695Z,999.99
2022-08-18T01:24:55.683Z,999.98
2022-08-18T01:25:55.673Z,999.98
2022-08-18T01:26:55.660Z,999.95
2022-08-18T01:27:55.664Z,999.96
2022-08-18T01:28:55.642Z,999.94
2022-08-18T01:29:55.632Z,999.94
2022-08-18T01:30:55.621Z,999.93
2022-08-18T01:31:55.609Z,1000.04
2022-08-18T01:32:55.601Z,1000.03
2022-08-18T01:33:55.592Z,1000
2022-08-18T01:34:55.582Z,1000.07
2022-08-18T01:35:55.624Z,1000.05
2022-08-18T01:36:55.561Z,1000.06
2022-08-18T01:37:55.549Z,999.99
2022-08-18T01:38:55.545Z,1000.02
2022-08-18T01:39:55.557Z,1000.05
2022-08-18T01:40:55.519Z,999.99
2022-08-18T01:41:55.506Z,1000.05
2022-08-18T01:42:55.506Z,1000.04
2022-08-18T01:43:55.500Z,1000.04
2022-08-18T01:44:55.476Z,1000.06
2022-08-18T01:45:55.477Z,1000.07
2022-08-18T01:46:55.453Z,1000.05
2022-08-18T01:47:55.449Z,999.94
2022-08-18T01:48:55.439Z,1000
2022-08-18T01:49:55.434Z,1000.03
2022-08-18T01:50:55.429Z,999.96
2022-08-18T01:51:55.404Z,1000.1
2022-08-18T01:52:55.391Z,1000.08
2022-08-18T01:53:55.385Z,1000.12
2022-08-18T01:54:55.379Z,1000.08
2022-08-18T01:55:55.360Z,1000.08
2022-08-18T01:56:55.353Z,1000.08
2022-08-18T01:57:55.342Z,1000.12
2022-08-18T01:58:55.324Z,1000.08
2022-08-18T01:59:55.357Z,1000.07
2022-08-18T02:00:55.349Z,1000.08
2022-08-18T02:01:55.300Z,1000.09
2022-08-18T02:02:55.281Z,1000.11
2022-08-18T02:03:55.268Z,1000.13
2022-08-18T02:04:55.262Z,1000.12
2022-08-18T02:05:55.248Z,1000.05
2022-08-18T02:06:55.237Z,1000.12
2022-08-18T02:07:55.235Z,1000.12
2022-08-18T02:08:55.227Z,1000.15
2022-08-18T02:09:55.227Z,1000.16
2022-08-18T02:10:55.194Z,1000.16
2022-08-18T02:11:55.192Z,1000.15
2022-08-18T02:12:55.176Z,1000.15
2022-08-18T02:13:55.157Z,1000.13
2022-08-18T02:14:55.159Z,1000.14
2022-08-18T02:15:55.145Z,1000.18
2022-08-18T02:16:55.131Z,1000.22
2022-08-18T02:17:55.123Z,1000.22
2022-08-18T02:18:55.112Z,1000.17
2022-08-18T02:19:55.109Z,1000.14
2022-08-18T02:20:55.109Z,1000.17
2022-08-18T02:21:55.084Z,1000.17
2022-08-18T02:22:55.072Z,1000.24
2022-08-18T02:24:01.944Z,1000.2
2022-08-18T02:24:55.049Z,1000.2
2022-08-18T02:25:55.032Z,1000.11
2022-08-18T02:26:55.022Z,1000.14
2022-08-18T02:27:55.014Z,1000.14
2022-08-18T02:28:55.016Z,1000.08
2022-08-18T02:29:54.996Z,1000.1
2022-08-18T02:30:54.985Z,1000.1
2022-08-18T02:31:54.970Z,1000.07
2022-08-18T02:32:54.980Z,1000.14
2022-08-18T02:33:54.950Z,1000.09
2022-08-18T02:34:54.945Z,1000.05
2022-08-18T02:35:54.929Z,1000.01
2022-08-18T02:36:54.917Z,1000.01
2022-08-18T02:37:54.907Z,1000
2022-08-18T02:38:54.904Z,1000.03
2022-08-18T02:39:54.892Z,1000.08
2022-08-18T02:40:54.883Z,1000.07
2022-08-18T02:41:54.884Z,1000.1
2022-08-18T02:42:54.850Z,1000.04
2022-08-18T02:43:54.844Z,1000.04
2022-08-18T02:44:54.848Z,1000.06
2022-08-18T02:45:54.827Z,1000.04
2022-08-18T02:46:54.818Z,999.98
2022-08-18T02:47:54.811Z,999.98
2022-08-18T02:48:54.795Z,999.98
2022-08-18T02:49:54.797Z,999.96
2022-08-18T02:50:54.786Z,999.95
2022-08-18T02:51:54.766Z,999.98
2022-08-18T02:52:54.768Z,999.97
2022-08-18T02:53:54.742Z,999.96
2022-08-18T02:54:54.741Z,999.96
2022-08-18T02:55:54.728Z,999.98
2022-08-18T02:56:54.714Z,1000.06
2022-08-18T02:57:54.701Z,1000.05
2022-08-18T02:58:54.712Z,1000.04
2022-08-18T02:59:54.674Z,1000.09
2022-08-18T03:00:54.674Z,1000.01
2022-08-18T03:01:54.657Z,1000.04
2022-08-18T03:02:54.654Z,999.99
2022-08-18T03:03:54.640Z,1000.02
2022-08-18T03:04:54.646Z,999.95
2022-08-18T03:05:54.616Z,1000.01
2022-08-18T03:06:54.620Z,1000.03
2022-08-18T03:07:54.608Z,1000.01
2022-08-18T03:08:54.581Z,1000.05
2022-08-18T03:09:54.588Z,1000.03
2022-08-18T03:10:54.576Z,999.99
2022-08-18T03:11:54.548Z,1000.03
2022-08-18T03:12:54.542Z,1000.04
2022-08-18T03:13:54.535Z,1000.03
2022-08-18T03:14:54.537Z,1000.08
2022-08-18T03:15:54.515Z,1000.06
2022-08-18T03:16:54.499Z,1000.06
2022-08-18T03:17:54.489Z,1000.03
2022-08-18T03:18:54.483Z,1000.01
2022-08-18T03:19:54.475Z,1000.04
2022-08-18T03:20:54.455Z,1000.01
2022-08-18T03:21:54.446Z,1000.02
2022-08-18T03:22:54.434Z,1000.01
2022-08-18T03:23:54.423Z,1000.08
2022-08-18T03:24:54.410Z,1000.06
2022-08-18T03:25:54.402Z,1000.03
2022-08-18T03:26:54.393Z,1000.02
2022-08-18T03:27:54.387Z,999.99
2022-08-18T03:28:54.376Z,999.97
2022-08-18T03:29:54.370Z,999.93
2022-08-18T03:30:54.341Z,999.95
2022-08-18T03:31:54.337Z,999.96
2022-08-18T03:32:54.348Z,999.93
2022-08-18T03:33:54.312Z,999.91
2022-08-18T03:34:54.310Z,999.86
2022-08-18T03:35:54.302Z,999.92
2022-08-18T03:36:54.284Z,999.96
2022-08-18T03:37:54.281Z,999.87
2022-08-18T03:38:54.270Z,999.9
2022-08-18T03:39:54.247Z,999.9
2022-08-18T03:40:54.241Z,999.91
2022-08-18T03:41:54.234Z,999.91
2022-08-18T03:42:54.229Z,999.91
2022-08-18T03:43:54.211Z,999.93
2022-08-18T03:44:54.201Z,999.9
2022-08-18T03:45:54.182Z,999.93
2022-08-18T03:46:54.198Z,999.99
2022-08-18T03:47:54.171Z,999.99
2022-08-18T03:48:54.165Z,999.95
2022-08-18T03:49:54.153Z,1000.07
2022-08-18T03:50:54.141Z,1000.05
2022-08-18T03:51:54.121Z,1000.02
2022-08-18T03:52:54.114Z,1000.06
2022-08-18T03:53:54.100Z,1000.06
2022-08-18T03:54:54.095Z,1000.04
2022-08-18T03:55:54.097Z,1000.05
2022-08-18T03:56:54.068Z,1000.1
2022-08-18T03:57:54.060Z,1000.08
2022-08-18T03:58:54.053Z,1000.09
2022-08-18T03:59:54.049Z,1000.11
2022-08-18T04:00:54.044Z,1000.1
2022-08-18T04:01:54.015Z,1000.1
2022-08-18T04:02:54.000Z,1000.13
2022-08-18T04:03:54.000Z,1000.11
2022-08-18T04:04:53.985Z,1000.13
2022-08-18T04:05:53.990Z,1000.14
2022-08-18T04:06:53.974Z,1000.15
2022-08-18T04:07:53.975Z,1000.18
2022-08-18T04:08:53.952Z,1000.11
2022-08-18T04:09:53.930Z,1000.18
2022-08-18T04:10:53.934Z,1000.12
2022-08-18T04:11:53.903Z,1000.14
2022-08-18T04:12:53.902Z,1000.21
2022-08-18T04:13:53.908Z,1000.15
2022-08-18T04:14:53.875Z,1000.2
2022-08-18T04:15:53.877Z,1000.17
2022-08-18T04:16:53.852Z,1000.28
2022-08-18T04:17:53.845Z,1000.29
2022-08-18T04:18:53.843Z,1000.3
2022-08-18T04:19:53.833Z,1000.31
2022-08-18T04:20:53.816Z,1000.23
2022-08-18T04:21:53.805Z,1000.23
2022-08-18T04:22:53.794Z,1000.29
2022-08-18T04:23:53.787Z,1000.27
2022-08-18T04:24:53.775Z,1000.31
2022-08-18T04:25:53.785Z,1000.25
2022-08-18T04:26:53.744Z,1000.29
2022-08-18T04:27:53.735Z,1000.25
2022-08-18T04:28:53.734Z,1000.28
2022-08-18T04:29:53.714Z,1000.28
2022-08-18T04:30:53.724Z,1000.26
2022-08-18T04:31:53.692Z,1000.25
2022-08-18T04:32:53.685Z,1000.24
2022-08-18T04:33:53.675Z,1000.21
2022-08-18T04:34:53.661Z,1000.23
2022-08-18T04:35:53.664Z,1000.29
2022-08-18T04:36:53.646Z,1000.32
2022-08-18T04:37:53.627Z,1000.3
2022-08-18T04:38:53.631Z,1000.32
2022-08-18T04:39:53.605Z,1000.37
2022-08-18T04:40:53.613Z,1000.3
2022-08-18T04:41:53.593Z,1000.3
2022-08-18T04:42:53.573Z,1000.31
2022-08-18T04:43:53.563Z,1000.3
2022-08-18T04:44:53.554Z,1000.32
2022-08-18T04:45:53.548Z,1000.37
2022-08-18T04:46:53.537Z,1000.38
2022-08-18T04:47:53.529Z,1000.38
2022-08-18T04:48:53.512Z,1000.35
2022-08-18T04:49:53.501Z,1000.35
2022-08-18T04:50:53.513Z,1000.36
2022-08-18T04:51:53.488Z,1000.35
2022-08-18T04:52:53.468Z,1000.35
2022-08-18T04:53:53.468Z,1000.33
2022-08-18T04:54:53.446Z,1000.33
2022-08-18T04:55:53.440Z,1000.29
2022-08-18T04:56:53.423Z,1000.35
2022-08-18T04:57:53.412Z,1000.35
2022-08-18T04:58:53.401Z,1000.35
2022-08-18T04:59:53.410Z,1000.32
2022-08-18T05:00:53.387Z,1000.33
2022-08-18T05:01:53.365Z,1000.34
2022-08-18T05:02:53.362Z,1000.27
2022-08-18T05:03:53.350Z,1000.33
2022-08-18T05:04:53.342Z,1000.31
2022-08-18T05:05:53.345Z,1000.3
2022-08-18T05:06:53.312Z,1000.29
2022-08-18T05:07:53.312Z,1000.26
2022-08-18T05:08:53.298Z,1000.28
2022-08-18T05:09:53.285Z,1000.3
2022-08-18T05:10:53.285Z,1000.33
2022-08-18T05:11:53.262Z,1000.33
2022-08-18T05:12:53.252Z,1000.3
2022-08-18T05:13:53.243Z,1000.36
2022-08-18T05:14:53.240Z,1000.35
2022-08-18T05:15:53.220Z,1000.34
2022-08-18T05:16:53.215Z,1000.31
2022-08-18T05:17:53.207Z,1000.35
2022-08-18T05:18:53.195Z,1000.4
2022-08-18T05:19:53.176Z,1000.42
2022-08-18T05:20:53.167Z,1000.38
2022-08-18T05:21:53.157Z,1000.41
2022-08-18T05:22:53.142Z,1000.48
2022-08-18T05:23:53.144Z,1000.51
2022-08-18T05:24:53.138Z,1000.47
2022-08-18T05:25:53.118Z,1000.47
2022-08-18T05:26:53.112Z,1000.47
2022-08-18T05:27:53.090Z,1000.45
2022-08-18T05:28:53.081Z,1000.43
2022-08-18T05:29:53.081Z,1000.46
2022-08-18T05:30:53.080Z,1000.44
2022-08-18T05:31:53.048Z,1000.36
2022-08-18T05:32:53.036Z,1000.36
2022-08-18T05:33:53.027Z,1000.38
2022-08-18T05:34:53.021Z,1000.34
2022-08-18T05:35:53.042Z,1000.33
2022-08-18T05:36:52.992Z,1000.37
2022-08-18T05:37:52.981Z,1000.35
2022-08-18T05:38:52.982Z,1000.4
2022-08-18T05:39:52.960Z,1000.39
2022-08-18T05:40:52.981Z,1000.35
2022-08-18T05:41:53.938Z,1000.37
2022-08-18T05:42:52.936Z,1000.41
2022-08-18T05:43:52.935Z,1000.45
2022-08-18T05:44:52.919Z,1000.37
2022-08-18T05:45:52.916Z,1000.39
2022-08-18T05:46:52.898Z,1000.39
2022-08-18T05:47:52.873Z,1000.4
2022-08-18T05:48:52.865Z,1000.32
2022-08-18T05:49:52.858Z,1000.34
2022-08-18T05:50:52.858Z,1000.32
2022-08-18T05:51:52.837Z,1000.29
2022-08-18T05:52:52.828Z,1000.37
2022-08-18T05:53:52.815Z,1000.39
2022-08-18T05:54:52.804Z,1000.52
2022-08-18T05:55:52.810Z,1000.52
2022-08-18T05:56:52.788Z,1000.47
2022-08-18T05:57:52.774Z,1000.46
2022-08-18T05:58:52.772Z,1000.51
2022-08-18T05:59:52.745Z,1000.45
2022-08-18T06:00:52.761Z,1000.52
2022-08-18T06:01:52.729Z,1000.58
2022-08-18T06:02:52.712Z,1000.57
2022-08-18T06:03:52.706Z,1000.59
2022-08-18T06:04:52.686Z,1000.56
2022-08-18T06:05:52.697Z,1000.59
2022-08-18T06:06:52.670Z,1000.61
2022-08-18T06:07:52.661Z,1000.61
2022-08-18T06:08:52.659Z,1000.6
2022-08-18T06:09:52.642Z,1000.61
2022-08-18T06:10:52.645Z,1000.55
2022-08-18T06:11:52.614Z,1000.56
2022-08-18T06:12:52.602Z,1000.6
2022-08-18T06:13:52.601Z,1000.62
2022-08-18T06:14:52.586Z,1000.68
2022-08-18T06:15:52.605Z,1000.62
2022-08-18T06:16:52.566Z,1000.65
2022-08-18T06:17:52.553Z,1000.67
2022-08-18T06:18:52.547Z,1000.7
2022-08-18T06:19:52.529Z,1000.72
2022-08-18T06:20:52.547Z,1000.75
2022-08-18T06:21:52.506Z,1000.71
2022-08-18T06:22:52.495Z,1000.78
2022-08-18T06:23:52.496Z,1000.72
2022-08-18T06:24:52.476Z,1000.77
2022-08-18T06:25:52.479Z,1000.75
2022-08-18T06:26:52.455Z,1000.78
2022-08-18T06:27:52.442Z,1000.8
2022-08-18T06:28:52.442Z,1000.83
2022-08-18T06:29:52.422Z,1000.87
2022-08-18T06:30:52.413Z,1000.85
2022-08-18T06:31:52.412Z,1000.83
2022-08-18T06:32:52.398Z,1000.92
2022-08-18T06:33:52.376Z,1000.85
2022-08-18T06:34:52.404Z,1000.92
2022-08-18T06:35:52.356Z,1000.96
2022-08-18T06:36:52.354Z,1000.99
2022-08-18T06:37:52.345Z,1000.96
2022-08-18T06:38:52.323Z,1001.02
2022-08-18T06:39:52.317Z,1001.04
2022-08-18T06:40:52.333Z,1001.11
2022-08-18T06:41:52.296Z,1001.11
2022-08-18T06:42:52.282Z,1001.07
2022-08-18T06:43:52.274Z,1001.1
2022-08-18T06:44:52.268Z,1001.08
2022-08-18T06:45:52.281Z,1001.08
2022-08-18T06:46:52.254Z,1001.09
2022-08-18T06:47:52.228Z,1001.06
2022-08-18T06:48:52.221Z,1001.09
2022-08-18T06:49:52.202Z,1001.11
2022-08-18T06:50:52.230Z,1001.09
2022-08-18T06:51:52.189Z,1001.07
2022-08-18T06:52:52.177Z,1001.11
2022-08-18T06:53:52.188Z,1001.11
2022-08-18T06:54:52.164Z,1001.13
2022-08-18T06:55:52.150Z,1001.15
2022-08-18T06:56:52.134Z,1001.17
2022-08-18T06:57:52.123Z,1001.17
2022-08-18T06:58:52.108Z,1001.16
2022-08-18T06:59:52.125Z,1001.15
2022-08-18T07:00:52.142Z,1001.2
2022-08-18T07:01:52.087Z,1001.2
2022-08-18T07:02:52.094Z,1001.22
2022-08-18T07:03:52.060Z,1001.17
2022-08-18T07:04:52.079Z,1001.23
2022-08-18T07:05:52.054Z,1001.25
2022-08-18T07:06:52.045Z,1001.28
2022-08-18T07:07:52.018Z,1001.28
2022-08-18T07:08:52.015Z,1001.29
2022-08-18T07:09:51.987Z,1001.22
2022-08-18T07:10:52.027Z,1001.22
2022-08-18T07:11:51.975Z,1001.22
2022-08-18T07:12:51.965Z,1001.22
2022-08-18T07:13:51.972Z,1001.27
2022-08-18T07:14:51.939Z,1001.29
2022-08-18T07:15:51.929Z,1001.27
2022-08-18T07:16:51.934Z,1001.28
2022-08-18T07:17:51.918Z,1001.28
2022-08-18T07:18:51.897Z,1001.28
2022-08-18T07:19:51.895Z,1001.34
2022-08-18T07:20:51.879Z,1001.36
2022-08-18T07:21:51.879Z,1001.34
2022-08-18T07:22:51.867Z,1001.34
2022-08-18T07:23:51.842Z,1001.33
2022-08-18T07:24:51.831Z,1001.38
2022-08-18T07:25:51.840Z,1001.31
2022-08-18T07:26:51.812Z,1001.36
2022-08-18T07:27:51.799Z,1001.36
2022-08-18T07:28:51.808Z,1001.29
2022-08-18T07:29:51.824Z,1001.34
2022-08-18T07:30:51.764Z,1001.31
2022-08-18T07:31:51.770Z,1001.33
2022-08-18T07:32:51.740Z,1001.31
2022-08-18T07:33:51.739Z,1001.23
2022-08-18T07:34:51.733Z,1001.24
2022-08-18T07:35:51.724Z,1001.28
2022-08-18T07:36:51.704Z,1001.26
2022-08-18T07:37:51.701Z,1001.26
2022-08-18T07:38:51.814Z,1001.31
2022-08-18T07:39:51.677Z,1001.31
2022-08-18T07:40:51.664Z,1001.32
2022-08-18T07:41:51.646Z,1001.26
2022-08-18T07:42:51.643Z,1001.26
2022-08-18T07:43:51.637Z,1001.2
2022-08-18T07:44:51.683Z,1001.28
2022-08-18T07:45:51.620Z,1001.3
2022-08-18T07:46:51.597Z,1001.3
2022-08-18T07:47:51.586Z,1001.27
2022-08-18T07:48:51.637Z,1001.24
2022-08-18T07:49:51.572Z,1001.25
2022-08-18T07:50:51.566Z,1001.25
2022-08-18T07:51:51.547Z,1001.28
2022-08-18T07:52:51.563Z,1001.26
2022-08-18T07:53:51.522Z,1001.33
2022-08-18T07:54:51.511Z,1001.27
2022-08-18T07:55:51.501Z,1001.36
2022-08-18T07:56:51.493Z,1001.18
2022-08-18T07:57:51.495Z,1001.18
2022-08-18T07:58:51.491Z,1001.22
2022-08-18T07:59:51.457Z,1001.18
2022-08-18T08:00:51.457Z,1001.22
2022-08-18T08:01:51.449Z,1001.16
2022-08-18T08:02:51.449Z,1001.07
2022-08-18T08:03:51.420Z,1001.14
2022-08-18T08:04:51.422Z,1001.08
2022-08-18T08:05:51.404Z,1001.1
2022-08-18T08:06:51.385Z,1001.09
2022-08-18T08:07:51.374Z,1001.09
2022-08-18T08:08:51.366Z,1001.09
2022-08-18T08:09:51.405Z,1001.11
2022-08-18T08:10:51.363Z,1001.12
2022-08-18T08:11:51.333Z,1001.13
2022-08-18T08:12:51.320Z,1001.15
2022-08-18T08:13:51.320Z,1001.12
2022-08-18T08:14:51.318Z,1001.06
2022-08-18T08:15:51.292Z,1001.06
2022-08-18T08:16:51.276Z,1001.04
2022-08-18T08:17:51.267Z,1001.08
2022-08-18T08:18:51.279Z,1001.06
2022-08-18T08:19:51.242Z,1001.07
2022-08-18T08:20:51.232Z,1001.07
2022-08-18T08:21:51.220Z,1001.1
2022-08-18T08:22:51.212Z,1001.07
2022-08-18T08:23:51.199Z,1001.04
2022-08-18T08:24:51.195Z,1001.15
2022-08-18T08:25:51.183Z,1001.03
2022-08-18T08:26:51.167Z,1001.09
2022-08-18T08:27:51.159Z,1001.08
2022-08-18T08:28:51.143Z,1001.06
2022-08-18T08:29:51.141Z,1001.05
2022-08-18T08:30:51.136Z,1001.12
2022-08-18T08:31:51.113Z,1001.2
2022-08-18T08:32:51.103Z,1001.14
2022-08-18T08:33:51.100Z,1001.2
2022-08-18T08:34:51.078Z,1001.23
2022-08-18T08:35:51.069Z,1001.23
2022-08-18T08:36:51.073Z,1001.3
2022-08-18T08:37:51.079Z,1001.27
2022-08-18T08:38:51.044Z,1001.36
2022-08-18T08:39:51.039Z,1001.33
2022-08-18T08:40:51.019Z,1001.31
2022-08-18T08:41:51.007Z,1001.34
2022-08-18T08:42:51.006Z,1001.27
2022-08-18T08:43:50.986Z,1001.27
2022-08-18T08:44:50.978Z,1001.22
2022-08-18T08:45:51.029Z,1001.22
2022-08-18T08:46:50.956Z,1001.25
2022-08-18T08:47:50.945Z,1001.27
2022-08-18T08:48:50.941Z,1001.25
2022-08-18T08:49:50.934Z,1001.23
2022-08-18T08:50:50.908Z,1001.27
2022-08-18T08:51:50.935Z,1001.3
2022-08-18T08:52:50.919Z,1001.29
2022-08-18T08:53:50.877Z,1001.29
2022-08-18T08:54:50.870Z,1001.3
2022-08-18T08:55:50.862Z,1001.27
2022-08-18T08:56:50.842Z,1001.25
2022-08-18T08:57:50.834Z,1001.25
2022-08-18T08:58:50.829Z,1001.27
2022-08-18T08:59:50.818Z,1001.26
2022-08-18T09:00:50.830Z,1001.28
2022-08-18T09:01:50.799Z,1001.26
2022-08-18T09:02:50.791Z,1001.24
2022-08-18T09:03:50.773Z,1001.25
2022-08-18T09:04:50.768Z,1001.21
2022-08-18T09:05:50.775Z,1001.23
2022-08-18T09:06:50.738Z,1001.24
2022-08-18T09:07:50.733Z,1001.29
2022-08-18T09:08:50.720Z,1001.32
2022-08-18T09:09:50.705Z,1001.26
2022-08-18T09:10:50.706Z,1001.23
2022-08-18T09:11:50.695Z,1001.23
2022-08-18T09:12:50.720Z,1001.24
2022-08-18T09:13:50.669Z,1001.21
2022-08-18T09:14:50.716Z,1001.26
2022-08-18T09:15:50.680Z,1001.28
2022-08-18T09:16:50.632Z,1001.26
2022-08-18T09:17:50.618Z,1001.32
2022-08-18T09:18:50.648Z,1001.34
2022-08-18T09:19:50.600Z,1001.39
2022-08-18T09:20:50.599Z,1001.31
2022-08-18T09:21:50.578Z,1001.3
2022-08-18T09:22:50.566Z,1001.31
2022-08-18T09:23:50.569Z,1001.31
2022-08-18T09:24:50.551Z,1001.25
2022-08-18T09:25:50.556Z,1001.25
2022-08-18T09:26:59.104Z,1001.24
2022-08-18T09:27:50.510Z,1001.25
2022-08-18T09:28:58.065Z,1001.28
2022-08-18T09:29:58.056Z,1001.26
2022-08-18T09:30:50.505Z,1001.19
2022-08-18T09:31:50.473Z,1001.22
2022-08-18T09:32:58.009Z,1001.26
2022-08-18T09:33:59.019Z,1001.25
2022-08-18T09:34:50.441Z,1001.22
2022-08-18T09:35:50.424Z,1001.21
2022-08-18T09:36:50.419Z,1001.17
2022-08-18T09:37:50.409Z,1001.23
2022-08-18T09:38:50.396Z,1001.29
2022-08-18T09:39:50.416Z,1001.29
2022-08-18T09:40:50.371Z,1001.36
2022-08-18T09:41:50.382Z,1001.36
2022-08-18T09:42:50.353Z,1001.41
2022-08-18T09:43:50.347Z,1001.4
2022-08-18T09:44:57.891Z,1001.46
2022-08-18T09:45:50.323Z,1001.41
2022-08-18T09:46:50.311Z,1001.39
2022-08-18T09:47:50.297Z,1001.36
2022-08-18T09:48:50.310Z,1001.4
2022-08-18T09:49:50.287Z,1001.34
2022-08-18T09:50:50.279Z,1001.44
2022-08-18T09:51:50.259Z,1001.34
2022-08-18T09:52:50.253Z,1001.42
2022-08-18T09:53:50.238Z,1001.4
2022-08-18T09:54:50.272Z,1001.43
2022-08-18T09:55:50.299Z,1001.46
2022-08-18T09:56:50.201Z,1001.52
2022-08-18T09:57:50.198Z,1001.48
2022-08-18T09:58:50.206Z,1001.52
2022-08-18T09:59:50.171Z,1001.49
2022-08-18T10:00:50.175Z,1001.51
2022-08-18T10:01:57.712Z,1001.41
2022-08-18T10:02:50.152Z,1001.52
2022-08-18T10:03:50.135Z,1001.5
2022-08-18T10:04:50.125Z,1001.52
2022-08-18T10:05:50.110Z,1001.47
2022-08-18T10:06:50.105Z,1001.47
2022-08-18T10:07:50.089Z,1001.46
2022-08-18T10:08:50.079Z,1001.46
2022-08-18T10:09:50.072Z,1001.45
2022-08-18T10:11:50.042Z,1001.46
2022-08-18T10:12:50.065Z,1001.46
2022-08-18T10:13:50.048Z,1001.53
2022-08-18T10:14:50.015Z,1001.49
2022-08-18T10:15:50.010Z,1001.56
2022-08-18T10:17:50.016Z,1001.53
2022-08-18T10:18:50.047Z,1001.52
2022-08-18T10:19:49.986Z,1001.48
2022-08-18T10:20:49.998Z,1001.46
2022-08-18T10:21:49.954Z,1001.43
2022-08-18T10:22:49.926Z,1001.49
2022-08-18T10:23:49.944Z,1001.46
2022-08-18T10:24:49.919Z,1001.45
2022-08-18T10:25:49.897Z,1001.51
2022-08-18T10:26:49.891Z,1001.48
2022-08-18T10:27:49.891Z,1001.49
2022-08-18T10:28:49.913Z,1001.49
2022-08-18T10:29:49.871Z,1001.49
2022-08-18T10:31:49.870Z,1001.48
2022-08-18T10:32:49.846Z,1001.44
2022-08-18T10:33:49.815Z,1001.45
2022-08-18T10:34:49.803Z,1001.41
2022-08-18T10:35:49.794Z,1001.42
2022-08-18T10:36:49.783Z,1001.44
2022-08-18T10:37:49.783Z,1001.4
2022-08-18T10:38:49.761Z,1001.41
2022-08-18T10:39:49.751Z,1001.44
2022-08-18T10:40:49.762Z,1001.39
2022-08-18T10:41:49.733Z,1001.41
2022-08-18T10:42:49.718Z,1001.46
2022-08-18T10:43:49.709Z,1001.41
2022-08-18T10:44:49.698Z,1001.49
2022-08-18T10:45:49.703Z,1001.47
2022-08-18T10:46:49.695Z,1001.53
2022-08-18T10:47:49.670Z,1001.49
2022-08-18T10:48:49.655Z,1001.49
2022-08-18T10:49:49.681Z,1001.51
2022-08-18T10:50:49.655Z,1001.46
2022-08-18T10:52:49.665Z,1001.41
2022-08-18T10:53:49.607Z,1001.45
2022-08-18T10:54:49.588Z,1001.5
2022-08-18T10:55:49.584Z,1001.52
2022-08-18T10:56:49.577Z,1001.46
2022-08-18T10:57:49.566Z,1001.48
2022-08-18T10:58:49.548Z,1001.51
2022-08-18T10:59:49.535Z,1001.47
2022-08-18T11:00:49.524Z,1001.5
2022-08-18T11:01:49.544Z,1001.55
2022-08-18T11:02:49.507Z,1001.53
2022-08-18T11:03:49.499Z,1001.53
2022-08-18T11:04:49.484Z,1001.55
2022-08-18T11:05:49.469Z,1001.5
2022-08-18T11:06:49.460Z,1001.49
2022-08-18T11:07:49.467Z,1001.47
2022-08-18T11:08:49.438Z,1001.53
2022-08-18T11:09:49.428Z,1001.52
2022-08-18T11:10:49.447Z,1001.47
2022-08-18T11:11:49.406Z,1001.47
2022-08-18T11:12:49.395Z,1001.45
2022-08-18T11:13:49.392Z,1001.5
2022-08-18T11:15:49.378Z,1001.47
2022-08-18T11:16:49.360Z,1001.44
2022-08-18T11:17:49.404Z,1001.4
2022-08-18T11:18:50.190Z,1001.43
2022-08-18T11:19:49.321Z,1001.36
2022-08-18T11:20:49.315Z,1001.41
2022-08-18T11:21:49.299Z,1001.39
2022-08-18T11:22:49.287Z,1001.41
2022-08-18T11:23:49.293Z,1001.38
2022-08-18T11:24:49.271Z,1001.45
2022-08-18T11:25:49.254Z,1001.44
2022-08-18T11:27:49.236Z,1001.41
2022-08-18T11:28:49.227Z,1001.37
2022-08-18T11:29:49.216Z,1001.43
2022-08-18T11:30:49.238Z,1001.47
2022-08-18T11:31:49.207Z,1001.48
2022-08-18T11:32:49.200Z,1001.46
2022-08-18T11:33:49.176Z,1001.49
2022-08-18T11:34:49.196Z,1001.47
2022-08-18T11:35:49.152Z,1001.42
2022-08-18T11:36:49.163Z,1001.43
2022-08-18T11:37:49.143Z,1001.4
2022-08-18T11:38:49.124Z,1001.39
2022-08-18T11:39:49.107Z,1001.35
2022-08-18T11:40:49.115Z,1001.35
2022-08-18T11:41:49.103Z,1001.34
2022-08-18T11:42:49.073Z,1001.29
2022-08-18T11:43:49.062Z,1001.22
2022-08-18T11:44:49.065Z,1001.24
2022-08-18T11:45:49.047Z,1001.24
2022-08-18T11:46:49.085Z,1001.22
2022-08-18T11:47:49.024Z,1001.2
2022-08-18T11:48:49.021Z,1001.2
2022-08-18T11:49:49.632Z,1001.19
2022-08-18T11:50:49.008Z,1001.21
2022-08-18T11:51:48.980Z,1001.18
2022-08-18T11:52:48.982Z,1001.07
2022-08-18T11:53:48.957Z,1001.14
2022-08-18T11:54:48.949Z,1001.16
2022-08-18T11:55:48.938Z,1001.14
2022-08-18T11:56:48.928Z,1001.17
2022-08-18T11:57:48.916Z,1001.23
2022-08-18T11:58:48.904Z,1001.24
2022-08-18T11:59:48.906Z,1001.25
2022-08-18T12:00:48.884Z,1001.21
2022-08-18T12:01:48.879Z,1001.23
2022-08-18T12:02:48.872Z,1001.21
2022-08-18T12:03:48.853Z,1001.26
2022-08-18T12:04:48.849Z,1001.26
2022-08-18T12:05:48.834Z,1001.15
2022-08-18T12:06:48.842Z,1001.2
2022-08-18T12:07:48.813Z,1001.21
2022-08-18T12:08:48.808Z,1001.19
2022-08-18T12:09:48.784Z,1001.21
2022-08-18T12:10:48.776Z,1001.12
2022-08-18T12:11:48.769Z,1001.09
2022-08-18T12:12:48.758Z,1001.07
2022-08-18T12:13:48.759Z,1001.04
2022-08-18T12:14:48.737Z,1001.09
2022-08-18T12:15:48.721Z,1001.12
2022-08-18T12:16:48.717Z,1001.15
2022-08-18T12:17:48.715Z,1001.04